Latest Coastal Weather Observations for Tewantin

IDQ60701

Issued at 8:12 am EST Wednesday 1 April 2015 (issued every 10 minutes, with the page automatically refreshed every 10 minutes)

About coastal observations | Map of coastal stations | Coastal observations for QLD | Marine services | Other Formats
Station Details ID: 040908 Name: TEWANTIN RSL PARK Lat: -26.39 Lon: 153.04 Height: 6.4 m
Data from the previous 72 hours. | See also: Recent months at Tewantin
Date/Time
EST
Temp

°C
Wind Pressure Rain
since 9am
mm
Weather Cloud Vis
km
Sea
Height
m
Swell
Dir
 
Speed
knots
Gust
knots
hPa Trend Height
m
Period
s
Dir
01/08:00am 20.5 SE 5 7 1021.1 - 11.4 - - - - - - -
01/07:30am 20.9 E 7 14 1020.8 - 9.6 - - - - - - -
01/07:00am 20.5 NE 4 6 1020.3 - 9.0 - - - - - - -
01/06:30am 20.3 SSW 5 8 1019.6 - 7.4 - - - - - - -
01/06:00am 20.2 SW 4 8 1018.9 - 7.2 Rain - - - - - -
01/05:30am 20.1 SSW 6 8 1018.8 - 6.8 - - - - - - -
01/05:00am 20.1 SSW 5 8 1018.6 - 6.8 - - - - - - -
01/04:30am 20.0 SSW 6 9 1018.4 - 6.4 - - - - - - -
01/04:00am 20.0 S 7 9 1018.5 - 6.4 - - - - - - -
01/03:30am 20.0 S 6 8 1018.1 - 6.2 - - - - - - -
01/03:00am 20.2 SSE 6 9 1018.5 - 5.6 - - - - - - -
01/02:30am 20.1 S 6 9 1018.4 - 5.6 - - - - - - -
01/02:00am 20.1 S 5 8 1018.7 - 5.6 - - - - - - -
01/01:30am 20.2 SSW 5 8 1018.8 - 5.6 - - - - - - -
01/01:00am 20.4 SSW 6 9 1019.3 - 5.6 - - - - - - -
01/12:30am 20.4 SSE 5 8 1019.8 - 5.6 - - - - - - -
 
Date/Time
EST
Temp

°C
Wind Pressure Rain
since 9am
mm
Weather Cloud Vis
km
Sea
Height
m
Swell
Dir
 
Speed
knots
Gust
knots
hPa Trend Height
m
Period
s
Dir
31/11:30pm 20.6 SSW 4 6 1020.4 - 5.6 - - - - - - -
31/11:00pm 20.8 SSW 5 8 1020.6 - 5.6 - - - - - - -
31/10:30pm 20.6 SSW 3 5 1020.9 - 5.6 - - - - - - -
31/10:00pm 20.9 SSE 4 6 1021.2 - 5.4 - - - - - - -
31/09:30pm 21.4 S 4 6 1021.4 - 3.2 - - - - - - -
31/09:00pm 22.0 SSE 6 10 1021.4 - 3.2 Recent precip. - - - - - -
31/08:30pm 22.4 S 5 8 1021.0 - 1.4 - - - - - - -
31/08:00pm 22.9 S 6 10 1020.7 - 1.4 - - - - - - -
31/07:30pm 22.9 SSE 7 12 1020.3 - 1.4 - - - - - - -
31/07:00pm 22.5 S 6 11 1020.4 - 1.4 - - - - - - -
31/06:30pm 22.0 S 5 8 1020.2 - 1.4 - - - - - - -
31/06:00pm 21.9 SSE 6 8 1019.9 - 1.4 Recent precip. - - - - - -
31/05:30pm 21.2 S 7 10 1019.6 - 1.0 - - - - - - -
31/05:00pm 22.0 ESE 9 16 1019.8 - 0.4 - - - - - - -
31/04:30pm 22.2 SE 2 4 1019.4 - 0.4 - - - - - - -
31/04:00pm 22.4 ESE 13 18 1019.6 - 0.0 - - - - - - -
31/03:30pm 25.0 SE 7 11 1019.5 - 0.0 - - - - - - -
31/03:00pm 25.2 SE 8 12 1019.6 - 0.0 - - - - - - -
31/02:30pm 25.6 SE 7 12 1019.8 - 0.0 - - - - - - -
31/02:00pm 25.6 ESE 8 13 1019.9 - 0.0 - - - - - - -
31/01:30pm 25.0 ESE 8 12 1020.1 - 0.0 - - - - - - -
31/01:00pm 25.3 SSE 6 10 1020.8 - 0.0 - - - - - - -
31/12:30pm 25.7 SE 7 10 1020.7 - 0.0 - - - - - - -
31/12:00pm 26.2 ESE 8 11 1020.9 - 0.0 - - - - - - -
31/11:30am 25.5 ESE 9 12 1021.6 - 0.0 - - - - - - -
31/11:00am 25.6 ESE 9 13 1021.7 - 0.0 - - - - - - -
31/10:30am 25.4 ESE 8 13 1022.0 - 0.0 - - - - - - -
31/10:00am 26.0 ESE 6 11 1022.0 - 0.0 - - - - - - -
31/09:30am 24.8 ESE 6 11 1022.0 - 0.0 - - - - - - -
31/09:00am 23.9 SSE 3 5 1022.3 - 0.0 - - - - - - -
31/08:30am 23.4 SSW 4 5 1022.2 - 0.0 - - - - - - -
31/08:00am 22.8 CALM 0 3 1022.1 - 0.0 - - - - - - -
31/07:30am 22.2 SSW 2 4 1021.7 - 0.0 - - - - - - -
31/07:00am 21.9 SSW 4 5 1021.3 - 0.0 - - - - - - -
31/06:30am 21.4 SSW 3 5 1021.1 - 0.0 - - - - - - -
31/06:00am 21.2 SW 1 4 1020.8 - 0.0 - - - - - - -
31/05:30am 21.2 SSW 4 5 1020.6 - 0.0 - - - - - - -
31/05:00am 21.2 SSW 4 5 1020.6 - 0.0 - - - - - - -
31/04:30am 21.3 SSE 3 4 1020.4 - 0.0 - - - - - - -
31/04:00am 21.4 SSW 3 5 1020.5 - 0.0 - - - - - - -
31/03:30am 21.1 SSW 3 5 1020.5 - 0.0 - - - - - - -
31/03:00am 20.8 SSW 3 4 1020.5 - 0.0 - - - - - - -
31/02:30am 21.0 SSW 1 4 1020.7 - 0.0 - - - - - - -
31/02:00am 20.9 SSW 3 4 1021.0 - 0.0 - - - - - - -
31/01:30am 21.0 SW 4 5 1021.4 - 0.0 - - - - - - -
31/01:00am 21.3 SW 3 4 1021.6 - 0.0 - - - - - - -
31/12:30am 21.4 S 4 5 1021.9 - 0.0 - - - - - - -
31/12:00am 21.5 SW 4 5 1022.2 - 0.0 - - - - - - -
 
Date/Time
EST
Temp

°C
Wind Pressure Rain
since 9am
mm
Weather Cloud Vis
km
Sea
Height
m
Swell
Dir
 
Speed
knots
Gust
knots
hPa Trend Height
m
Period
s
Dir
30/11:30pm 22.6 ESE 3 5 1022.0 - 0.0 - - - - - - -
30/11:00pm 21.9 S 4 5 1022.1 - 0.0 - - - - - - -
30/10:30pm 22.2 S 5 7 1022.3 - 0.0 - - - - - - -
30/10:00pm 22.1 SSW 3 4 1022.7 - 0.0 - - - - - - -
30/09:30pm 21.9 SW 2 4 1022.9 - 0.0 - - - - - - -
30/09:00pm 22.6 SSW 4 6 1022.9 - 0.0 - - - - - - -
30/08:30pm 22.9 SSW 4 5 1022.8 - 0.0 - - - - - - -
30/08:00pm 23.2 SSW 3 5 1022.6 - 0.0 - - - - - - -
30/07:30pm 23.5 S 4 6 1022.4 - 0.0 - - - - - - -
30/07:00pm 24.2 SSE 3 4 1022.2 - 0.0 - - - - - - -
30/06:30pm 24.4 SSE 4 7 1021.8 - 0.0 - - - - - - -
30/06:00pm 24.6 ESE 5 7 1021.2 - 0.0 - - - - - - -
30/05:30pm 24.8 ESE 5 8 1021.0 - 0.0 - - - - - - -
30/05:00pm 24.8 ESE 6 11 1020.7 - 0.0 - - - - - - -
30/04:30pm 25.0 E 7 11 1020.5 - 0.0 - - - - - - -
30/04:00pm 25.4 E 7 11 1020.4 - 0.0 - - - - - - -
30/03:30pm 26.0 ESE 7 10 1020.2 - 0.0 - - - - - - -
30/03:00pm 26.2 ENE 7 11 1020.3 - 0.0 - - - - - - -
30/02:30pm 26.2 E 8 11 1020.4 - 0.0 - - - - - - -
30/02:00pm 26.4 E 8 14 1020.7 - 0.0 - - - - - - -
30/01:30pm 26.4 E 8 11 1021.1 - 0.0 - - - - - - -
30/01:00pm 26.3 E 8 13 1021.3 - 0.0 - - - - - - -
30/12:30pm 25.9 E 8 12 1021.8 - 0.0 - - - - - - -
30/12:00pm 25.9 E 7 11 1022.2 - 0.0 - - - - - - -
30/11:30am 26.5 E 7 11 1022.7 - 0.0 - - - - - - -
30/11:00am 25.6 ESE 6 10 1023.2 - 0.0 - - - - - - -
30/10:30am 27.1 ENE 6 10 1023.5 - 0.0 - - - - - - -
30/10:00am 27.5 ENE 7 10 1023.5 - 0.0 - - - - - - -
30/09:30am 26.5 E 8 13 1023.5 - 0.0 - - - - - - -
30/09:00am 25.7 E 7 13 1023.6 - 0.0 - - - - - - -
30/08:30am 25.3 E 8 12 1023.2 - 0.0 - - - - - - -
30/08:00am 24.7 E 5 8 1023.3 - 0.0 - - - - - - -
30/07:30am 24.2 ESE 6 9 1023.1 - 0.0 - - - - - - -
30/07:00am 24.4 E 6 9 1022.4 - 0.0 - - - - - - -
30/06:30am 23.7 ESE 5 9 1022.0 - 0.0 - - - - - - -
30/06:00am 22.0 SE 3 5 1021.7 - 0.0 - - - - - - -
30/05:30am 23.1 E 5 7 1021.4 - 0.0 - - - - - - -
30/05:00am 22.7 E 4 7 1021.2 - 0.0 - - - - - - -
30/04:30am 21.5 S 4 5 1020.8 - 0.0 - - - - - - -
30/04:00am 23.2 E 5 7 1020.6 - 0.0 - - - - - - -
30/03:30am 21.8 ESE 4 5 1020.8 - 0.0 - - - - - - -
30/03:00am 21.0 SSE 3 5 1021.2 - 0.0 - - - - - - -
30/02:30am 20.8 SSW 2 4 1021.3 - 0.0 - - - - - - -
30/02:00am 20.5 SSW 4 5 1021.5 - 0.0 - - - - - - -
30/01:30am 20.5 SSW 3 4 1021.6 - 0.0 - - - - - - -
30/01:00am 20.4 SSW 5 5 1021.8 - 0.0 - - - - - - -
30/12:30am 20.7 SSW 4 5 1022.2 - 0.0 - - - - - - -
30/12:00am 20.8 SSW 3 5 1022.4 - 0.0 - - - - - - -
 
Date/Time
EST
Temp

°C
Wind Pressure Rain
since 9am
mm
Weather Cloud Vis
km
Sea
Height
m
Swell
Dir
 
Speed
knots
Gust
knots
hPa Trend Height
m
Period
s
Dir
29/11:30pm 20.9 SW 4 5 1022.5 - 0.0 - - - - - - -
29/11:00pm 21.1 S 4 5 1022.4 - 0.0 - - - - - - -
29/10:30pm 21.3 S 4 5 1022.3 - 0.0 - - - - - - -
29/10:00pm 21.1 SSW 4 5 1022.5 - 0.0 - - - - - - -
29/09:30pm 21.9 S 4 4 1022.6 - 0.0 - - - - - - -
29/09:00pm 21.7 SSW 4 5 1022.8 - 0.0 - - - - - - -
29/08:30pm 22.4 SSW 3 4 1022.8 - 0.0 - - - - - - -
29/08:00pm 23.2 ESE 3 6 1022.5 - 0.0 - - - - - - -
29/07:30pm 23.0 E 3 5 1022.1 - 0.0 - - - - - - -
29/07:00pm 23.5 E 4 5 1021.9 - 0.0 - - - - - - -
29/06:30pm 23.8 E 4 6 1021.5 - 0.0 - - - - - - -
29/06:00pm 24.4 E 5 8 1021.3 - 0.0 - - - - - - -
29/05:30pm 24.8 E 7 10 1021.1 - 0.0 - - - - - - -
29/05:00pm 25.2 E 5 8 1021.1 - 0.0 - - - - - - -
29/04:30pm 25.5 ESE 7 11 1021.1 - 0.0 - - - - - - -
29/04:00pm 25.9 E 7 11 1021.0 - 0.0 - - - - - - -
29/03:30pm 26.3 ESE 7 10 1020.9 - 0.0 - - - - - - -
29/03:00pm 26.3 ESE 7 12 1020.9 - 0.0 - - - - - - -
29/02:30pm 26.2 E 9 12 1020.9 - 0.0 - - - - - - -
29/02:00pm 26.3 ESE 8 13 1021.1 - 0.0 - - - - - - -
29/01:30pm 26.0 ESE 8 14 1021.5 - 0.0 - - - - - - -
29/01:00pm 26.3 ESE 9 13 1021.6 - 0.0 - - - - - - -
29/12:30pm 26.2 ESE 9 15 1022.1 - 0.0 - - - - - - -
29/12:00pm 27.1 E 7 13 1022.4 - 0.0 - - - - - - -
29/11:30am 25.9 SE 8 13 1022.8 - 0.0 - - - - - - -
29/11:00am 26.5 ESE 9 14 1023.2 - 0.0 - - - - - - -
29/10:30am 26.2 ESE 10 17 1023.2 - 0.0 - - - - - - -
29/10:00am 26.1 ESE 9 12 1023.1 - 0.0 - - - - - - -
29/09:30am 26.1 ESE 8 12 1023.1 - 0.0 - - - - - - -
29/09:00am 26.0 E 9 13 1023.0 - 2.2 - - - - - - -
29/08:30am 25.5 ESE 9 15 1022.8 - 2.2 - - - - - - -

Other Formats:

Comma delimited format used in spreadsheet applications
http://www.bom.gov.au/fwo/IDQ60701/IDQ60701.94570.axf

JavaScript Object Notation format (JSON) in row-major order
http://www.bom.gov.au/fwo/IDQ60701/IDQ60701.94570.json